Campanya meteocatpedra

Dades EMA Oliana

?
?
Resum diari
Dades diàries de l'estació meteorològica
Temperatura mitjana -1.9 °C
Temperatura màxima 3.4 °C 14:54 TU
Temperatura mínima -7.5 °C 7:49 TU
Humitat relativa mitjana 53%
Precipitació acumulada 0.0 mm
Ratxa màxima del vent (2 m) 37.1 km/h - 313º 6:21 TU
Irradiació solar global 10.0 MJ/m2

El tram horari està expressat en Temps Universal (TU). Cal sumar una hora en horari d'hivern i dues en horari d'estiu per passar a l'hora oficial.

Oliana

Metadades estació meteorol´gica
Municipi Oliana
Comarca Alt Urgell
Altitud 490 m
Data alta 22.06.2000
Estat actual Operativa
Dades de període
Període
TU
TM
°C
TX
°C
TN
°C
HRM
%
PPT
mm
VVM (2 m)
km/h
DVM (2 m)
graus
VVX (2 m)
km/h
RS
W/m2
00:00 - 00:30 -0.6 -0.3 -0.8 34 0.0 11.2 337 29.9 0
00:30 - 01:00 -1.0 -0.8 -1.3 36 0.0 11.9 344 26.6 0
01:00 - 01:30 -1.3 -1.2 -1.6 37 0.0 13.0 345 27.7 0
01:30 - 02:00 -1.7 -1.6 -1.8 39 0.0 12.6 354 28.4 0
02:00 - 02:30 -1.8 -1.8 -1.9 39 0.0 14.8 348 33.1 0
02:30 - 03:00 -1.9 -1.9 -2.0 40 0.0 14.8 347 31.0 0
03:00 - 03:30 -2.1 -2.0 -2.3 41 0.0 13.0 352 30.6 0
03:30 - 04:00 -2.4 -2.2 -2.5 41 0.0 11.5 359 27.0 0
04:00 - 04:30 -2.6 -2.4 -2.7 42 0.0 10.8 0 31.0 0
04:30 - 05:00 -2.9 -2.6 -3.0 43 0.0 12.2 1 28.4 0
05:00 - 05:30 -2.9 -2.7 -2.9 43 0.0 10.1 351 28.1 0
05:30 - 06:00 -3.5 -2.9 -4.7 45 0.0 10.4 320 29.5 0
06:00 - 06:30 -3.4 -3.3 -3.6 45 0.0 15.8 349 37.1 0
06:30 - 07:00 -3.4 -3.3 -3.5 45 0.0 9.7 344 34.6 0
07:00 - 07:30 -4.5 -3.2 -6.5 51 0.0 7.9 303 24.1 3
07:30 - 08:00 -7.2 -6.2 -7.5 71 0.0 4.7 188 10.8 15
08:00 - 08:30 -6.8 -6.3 -7.3 72 0.0 4.3 190 9.7 89
08:30 - 09:00 -5.8 -4.8 -6.4 71 0.0 6.1 194 14.8 186
09:00 - 09:30 -4.2 -3.4 -4.6 66 0.0 7.2 238 13.0 261
09:30 - 10:00 -2.5 -1.8 -3.3 58 0.0 6.5 187 11.5 327
10:00 - 10:30 -1.4 -0.8 -2.0 52 0.0 6.8 183 12.6 385
10:30 - 11:00 -0.5 -0.1 -0.9 48 0.0 9.4 198 16.6 434
11:00 - 11:30 0.0 0.5 -0.3 46 0.0 8.3 208 14.0 465
11:30 - 12:00 1.0 1.5 0.6 44 0.0 7.2 198 15.5 484
12:00 - 12:30 1.5 2.1 1.0 45 0.0 6.5 209 11.9 487
12:30 - 13:00 2.0 2.4 1.6 44 0.0 5.8 207 13.0 465
13:00 - 13:30 2.2 2.7 2.0 44 0.0 7.6 210 13.0 450
13:30 - 14:00 2.8 3.0 2.5 42 0.0 7.2 188 13.3 405
14:00 - 14:30 2.9 3.1 2.8 42 0.0 7.9 202 13.7 355
14:30 - 15:00 3.0 3.4 2.7 42 0.0 7.2 211 13.0 320
15:00 - 15:30 3.0 3.2 2.7 41 0.0 6.8 203 11.9 219
15:30 - 16:00 2.5 2.7 2.1 42 0.0 7.6 206 10.8 130
16:00 - 16:30 1.9 2.0 1.7 44 0.0 4.3 207 9.4 61
16:30 - 17:00 1.4 1.7 0.9 46 0.0 3.6 197 7.6 12
17:00 - 17:30 0.0 0.9 -1.2 51 0.0 1.1 75 5.4 0
17:30 - 18:00 -2.1 -1.3 -2.4 59 0.0 2.5 69 5.8 0
18:00 - 18:30 -2.5 -2.4 -2.7 61 0.0 2.2 75 5.0 0
18:30 - 19:00 -2.6 -2.3 -2.7 62 0.0 2.2 66 5.4 0
19:00 - 19:30 -2.7 -2.3 -3.0 63 0.0 1.8 72 5.4 0
19:30 - 20:00 -3.1 -2.8 -3.5 65 0.0 1.1 111 4.7 0
20:00 - 20:30 -3.8 -3.4 -4.3 67 0.0 1.4 71 3.6 0
20:30 - 21:00 -4.5 -4.2 -4.8 70 0.0 1.8 62 6.1 0
21:00 - 21:30 -4.4 -4.2 -4.8 70 0.0 1.8 28 6.5 0
21:30 - 22:00 -4.3 -4.1 -4.5 69 0.0 1.1 98 4.0 0
22:00 - 22:30 -4.7 -4.2 -5.5 71 0.0 1.4 65 3.2 0
22:30 - 23:00 -5.6 -5.4 -5.8 76 0.0 1.4 68 5.0 0
23:00 - 23:30 -5.6 -5.2 -6.0 76 0.0 1.8 101 6.1 0
23:30 - 00:00 -6.3 -5.9 -6.5 79 0.0 1.8 69 4.7 0

Les dades en taronja només han passat un control de qualitat automàtic. Resta pendent la seva validació definitiva.